YPGV/GOV METAR and TAF weather

Enter ICAO airport designator
Station Type Date Time Source
YPGV METAR 2022/01/19 19:00 UTC NOAA

YPGV 191900Z AUTO 00000KT 9999 // SCT020 BKN025 26/25 Q1004


Station Type Date Time Source
YPGV Decoded METAR 2022/01/19 19:00 UTC NOAA

Station name not available
Jan 19, 2022 - 02:00 PM EST / 2022.01.19 1900 UTC
Wind: Calm:0
Visibility: greater than 7 mile(s):0
Sky conditions: mostly cloudy
Temperature: 78 F (26 C)
Dew Point: 77 F (25 C)
Relative Humidity: 94%
Pressure (altimeter): 29.65 in. Hg (1004 hPa)
ob: YPGV 191900Z AUTO 00000KT 9999 // SCT020 BKN025 26/25 Q1004
cycle: 19

Station Type Date Time Source
YPGV TAF 2022/01/19 14:00 UTC NOAA

TAF
AMD YPGV 191224Z 1914/2002 08006KT 9999 SCT020
FM200000 08014KT 9999 SCT030

Example: see airport list